createdAt,value
2018-02-12T00:01:39.094Z,80.42
2018-02-12T00:04:06.766Z,80.00
2018-02-12T00:06:34.312Z,80.35
2018-02-12T00:09:01.866Z,80.57
2018-02-12T00:11:29.589Z,80.53
2018-02-12T00:13:57.133Z,80.17
2018-02-12T00:16:24.666Z,80.17
2018-02-12T00:18:53.391Z,80.34
2018-02-12T00:21:20.943Z,80.70
2018-02-12T00:23:48.481Z,81.11
2018-02-12T00:26:16.228Z,81.36
2018-02-12T00:28:43.785Z,81.34
2018-02-12T00:31:11.327Z,80.51
2018-02-12T00:33:39.062Z,80.43
2018-02-12T00:36:06.607Z,80.35
2018-02-12T00:38:34.147Z,80.87
2018-02-12T00:41:01.734Z,81.32
2018-02-12T00:43:29.286Z,80.70
2018-02-12T00:45:56.828Z,80.71
2018-02-12T00:48:24.498Z,80.03
2018-02-12T00:50:52.046Z,79.96
2018-02-12T00:53:19.586Z,80.14
2018-02-12T00:55:47.192Z,79.75
2018-02-12T00:58:14.730Z,79.24
2018-02-12T01:00:42.266Z,79.09
2018-02-12T01:03:09.845Z,80.14
2018-02-12T01:05:37.391Z,79.60
2018-02-12T01:08:04.946Z,79.70
2018-02-12T01:10:32.506Z,79.19
2018-02-12T01:13:00.053Z,79.33
2018-02-12T01:15:27.642Z,79.00
2018-02-12T01:17:55.178Z,79.38
2018-02-12T01:20:22.726Z,79.45
2018-02-12T01:22:51.049Z,79.61
2018-02-12T01:25:18.592Z,79.51
2018-02-12T01:27:46.153Z,79.42
2018-02-12T01:30:13.745Z,78.93
2018-02-12T01:32:41.299Z,78.95
2018-02-12T01:35:08.840Z,78.84
2018-02-12T01:37:36.649Z,79.14
2018-02-12T01:40:04.197Z,79.98
2018-02-12T01:42:31.738Z,79.97
2018-02-12T01:44:59.411Z,79.66
2018-02-12T01:47:26.953Z,79.47
2018-02-12T01:50:06.471Z,79.49
2018-02-12T01:52:34.007Z,79.26
2018-02-12T01:55:01.576Z,79.10
2018-02-12T01:57:29.312Z,79.21
2018-02-12T01:59:56.847Z,79.31
2018-02-12T02:02:24.412Z,79.12
2018-02-12T02:04:52.148Z,78.99
2018-02-12T02:07:19.699Z,79.22
2018-02-12T02:09:47.248Z,79.36
2018-02-12T02:12:14.930Z,79.39
2018-02-12T02:14:42.482Z,79.25
2018-02-12T02:17:10.094Z,79.08
2018-02-12T02:19:37.967Z,79.42
2018-02-12T02:22:05.514Z,78.76
2018-02-12T02:24:33.054Z,78.82
2018-02-12T02:27:00.625Z,78.50
2018-02-12T02:29:28.176Z,78.90
2018-02-12T02:31:55.721Z,79.33
2018-02-12T02:34:23.463Z,78.97
2018-02-12T02:36:51.023Z,78.57
2018-02-12T02:39:18.598Z,78.20
2018-02-12T02:41:46.469Z,79.11
2018-02-12T02:44:14.024Z,79.53
2018-02-12T02:46:41.583Z,79.90
2018-02-12T02:49:09.453Z,80.60
2018-02-12T02:51:37.009Z,80.92
2018-02-12T02:54:04.572Z,81.17
2018-02-12T02:56:32.149Z,81.36
2018-02-12T02:58:59.696Z,81.32
2018-02-12T03:01:27.242Z,81.41
2018-02-12T03:03:54.822Z,81.25
2018-02-12T03:06:22.373Z,80.78
2018-02-12T03:08:49.918Z,80.84
2018-02-12T03:11:17.505Z,80.96
2018-02-12T03:13:45.059Z,81.00
2018-02-12T03:16:12.606Z,80.60
2018-02-12T03:18:40.342Z,80.24
2018-02-12T03:21:07.906Z,80.53
2018-02-12T03:23:35.483Z,80.33
2018-02-12T03:26:03.062Z,80.43
2018-02-12T03:28:30.619Z,80.22
2018-02-12T03:30:58.176Z,80.93
2018-02-12T03:33:25.865Z,81.00
2018-02-12T03:35:53.407Z,80.82
2018-02-12T03:38:20.957Z,80.54
2018-02-12T03:40:48.529Z,80.20
2018-02-12T03:43:16.073Z,80.19
2018-02-12T03:45:48.080Z,79.97
2018-02-12T03:48:15.774Z,80.02
2018-02-12T03:50:43.315Z,80.69
2018-02-12T03:53:10.863Z,80.80
2018-02-12T03:55:38.456Z,80.83
2018-02-12T03:58:06.005Z,80.85
2018-02-12T04:00:33.554Z,80.93
2018-02-12T04:03:01.246Z,80.37
2018-02-12T04:05:28.803Z,79.73
2018-02-12T04:07:56.377Z,79.00
2018-02-12T04:10:23.923Z,78.87
2018-02-12T04:12:51.479Z,78.84
2018-02-12T04:15:19.143Z,78.78
2018-02-12T04:17:46.691Z,78.80
2018-02-12T04:20:14.240Z,79.06
2018-02-12T04:22:41.945Z,79.55
2018-02-12T04:25:09.493Z,79.52
2018-02-12T04:27:37.043Z,79.40
2018-02-12T04:30:04.664Z,79.44
2018-02-12T04:32:32.216Z,79.13
2018-02-12T04:34:59.757Z,79.35
2018-02-12T04:37:27.704Z,79.08
2018-02-12T04:39:55.256Z,79.20
2018-02-12T04:42:22.798Z,79.51
2018-02-12T04:44:50.388Z,79.52
2018-02-12T04:47:17.943Z,80.43
2018-02-12T04:49:45.482Z,80.62
2018-02-12T04:52:13.102Z,80.20
2018-02-12T04:54:40.644Z,80.20
2018-02-12T04:57:08.192Z,80.54
2018-02-12T04:59:36.058Z,80.50
2018-02-12T05:02:03.607Z,80.35
2018-02-12T05:04:31.173Z,80.52
2018-02-12T05:06:58.859Z,80.57
2018-02-12T05:09:26.403Z,80.70
2018-02-12T05:11:53.957Z,80.23
2018-02-12T05:14:21.574Z,80.37
2018-02-12T05:16:49.132Z,79.81
2018-02-12T05:19:16.689Z,79.88
2018-02-12T05:21:44.377Z,80.11
2018-02-12T05:24:11.950Z,80.02
2018-02-12T05:26:39.514Z,80.32
2018-02-12T05:29:07.113Z,80.46
2018-02-12T05:31:34.655Z,80.49
2018-02-12T05:34:02.203Z,80.65
2018-02-12T05:36:29.922Z,80.69
2018-02-12T05:38:57.562Z,80.83
2018-02-12T05:41:25.112Z,80.70
2018-02-12T05:43:52.710Z,80.35
2018-02-12T05:46:20.268Z,80.21
2018-02-12T05:48:47.814Z,80.24
2018-02-12T05:51:15.508Z,80.34
2018-02-12T05:53:43.050Z,80.20
2018-02-12T05:56:10.638Z,80.25
2018-02-12T05:58:38.210Z,80.67
2018-02-12T06:01:05.771Z,80.30
2018-02-12T06:03:33.310Z,80.58
2018-02-12T06:06:00.898Z,80.36
2018-02-12T06:08:28.510Z,80.86
2018-02-12T06:10:56.062Z,81.21
2018-02-12T06:13:23.747Z,81.23
2018-02-12T06:15:51.308Z,80.10
2018-02-12T06:18:18.855Z,80.13
2018-02-12T06:20:46.597Z,79.95
2018-02-12T06:23:14.154Z,79.29
2018-02-12T06:25:41.704Z,78.82
2018-02-12T06:28:09.581Z,78.62
2018-02-12T06:30:37.125Z,77.05
2018-02-12T06:33:04.669Z,77.61
2018-02-12T06:35:32.245Z,77.12
2018-02-12T06:37:59.792Z,76.86
2018-02-12T06:40:27.340Z,76.98
2018-02-12T06:42:55.022Z,75.98
2018-02-12T06:45:22.580Z,75.68
2018-02-12T06:47:50.133Z,75.53
2018-02-12T06:50:17.854Z,75.60
2018-02-12T06:52:45.405Z,75.41
2018-02-12T06:55:12.966Z,75.72
2018-02-12T06:57:40.566Z,75.82
2018-02-12T07:00:09.131Z,75.60
2018-02-12T07:02:36.683Z,75.31
2018-02-12T07:05:04.367Z,75.58
2018-02-12T07:07:31.918Z,74.74
2018-02-12T07:09:59.468Z,74.54
2018-02-12T07:12:27.153Z,75.16
2018-02-12T07:14:54.707Z,75.28
2018-02-12T07:17:22.255Z,74.91
2018-02-12T07:19:49.833Z,75.37
2018-02-12T07:22:17.393Z,75.25
2018-02-12T07:24:44.941Z,74.62
2018-02-12T07:27:12.693Z,74.64
2018-02-12T07:29:40.252Z,72.95
2018-02-12T07:32:07.807Z,73.87
2018-02-12T07:34:35.379Z,73.94
2018-02-12T07:37:02.968Z,73.61
2018-02-12T07:39:30.523Z,74.03
2018-02-12T07:41:58.396Z,72.54
2018-02-12T07:44:25.949Z,73.34
2018-02-12T07:46:54.127Z,72.14
2018-02-12T07:49:21.914Z,73.19
2018-02-12T07:51:49.471Z,73.34
2018-02-12T07:54:17.016Z,72.57
2018-02-12T07:56:44.710Z,72.97
2018-02-12T07:59:12.273Z,73.05
2018-02-12T08:01:39.825Z,73.65
2018-02-12T08:04:07.418Z,71.49
2018-02-12T08:06:34.965Z,72.31
2018-02-12T08:09:02.515Z,72.44
2018-02-12T08:11:30.089Z,72.09
2018-02-12T08:13:57.634Z,72.00
2018-02-12T08:16:25.211Z,72.42
2018-02-12T08:18:52.765Z,71.84
2018-02-12T08:21:20.311Z,71.94
2018-02-12T08:23:47.892Z,72.28
2018-02-12T08:26:15.445Z,72.61
2018-02-12T08:28:43.000Z,71.91
2018-02-12T08:31:10.586Z,71.13
2018-02-12T08:33:38.142Z,72.03
2018-02-12T08:36:05.697Z,71.45
2018-02-12T08:38:33.432Z,71.81
2018-02-12T08:41:01.021Z,71.80
2018-02-12T08:43:28.569Z,70.52
2018-02-12T08:45:56.178Z,70.93
2018-02-12T08:48:23.726Z,72.40
2018-02-12T08:50:51.294Z,71.16
2018-02-12T08:53:18.875Z,71.63
2018-02-12T08:55:46.430Z,71.37
2018-02-12T08:58:13.982Z,71.25
2018-02-12T09:00:41.580Z,71.52
2018-02-12T09:03:09.140Z,70.77
2018-02-12T09:05:36.689Z,70.53
2018-02-12T09:08:04.399Z,71.02
2018-02-12T09:10:31.943Z,70.09
2018-02-12T09:12:59.499Z,69.20
2018-02-12T09:15:27.246Z,69.17
2018-02-12T09:17:54.827Z,69.85
2018-02-12T09:20:22.376Z,69.54
2018-02-12T09:22:50.059Z,69.71
2018-02-12T09:25:17.619Z,69.34
2018-02-12T09:27:45.167Z,68.87
2018-02-12T09:30:12.749Z,69.25
2018-02-12T09:32:40.303Z,69.67
2018-02-12T09:35:07.869Z,70.53
2018-02-12T09:37:35.551Z,69.39
2018-02-12T09:40:03.136Z,70.41
2018-02-12T09:42:30.694Z,70.19
2018-02-12T09:44:58.386Z,71.16
2018-02-12T09:47:25.938Z,71.52
2018-02-12T09:49:53.497Z,70.88
2018-02-12T09:52:21.180Z,71.66
2018-02-12T09:54:48.728Z,70.50
2018-02-12T09:57:16.270Z,70.47
2018-02-12T09:59:43.967Z,70.30
2018-02-12T10:02:12.862Z,70.61
2018-02-12T10:04:40.406Z,72.02
2018-02-12T10:07:07.985Z,70.81
2018-02-12T10:09:35.524Z,71.29
2018-02-12T10:12:03.075Z,70.90
2018-02-12T10:14:30.668Z,70.53
2018-02-12T10:16:58.239Z,69.53
2018-02-12T10:19:25.792Z,68.11
2018-02-12T10:21:53.395Z,68.76
2018-02-12T10:24:20.942Z,69.67
2018-02-12T10:26:48.518Z,69.61
2018-02-12T10:29:16.736Z,69.22
2018-02-12T10:31:44.285Z,68.60
2018-02-12T10:34:11.830Z,68.83
2018-02-12T10:36:39.398Z,68.44
2018-02-12T10:39:06.972Z,68.44
2018-02-12T10:41:34.523Z,69.47
2018-02-12T10:44:02.288Z,69.25
2018-02-12T10:46:29.868Z,68.13
2018-02-12T10:48:57.441Z,68.64
2018-02-12T10:51:25.172Z,69.07
2018-02-12T10:53:52.713Z,68.51
2018-02-12T10:56:20.275Z,69.30
2018-02-12T10:58:47.900Z,68.99
2018-02-12T11:01:15.465Z,69.48
2018-02-12T11:03:43.028Z,68.71
2018-02-12T11:06:10.606Z,68.33
2018-02-12T11:08:38.182Z,70.03
2018-02-12T11:11:05.730Z,71.49
2018-02-12T11:13:33.408Z,72.39
2018-02-12T11:16:00.971Z,72.06
2018-02-12T11:18:28.513Z,74.72
2018-02-12T11:20:56.095Z,75.11
2018-02-12T11:23:23.652Z,74.62
2018-02-12T11:25:51.204Z,73.69
2018-02-12T11:28:18.796Z,72.70
2018-02-12T11:30:46.369Z,73.64
2018-02-12T11:33:13.931Z,74.88
2018-02-12T11:35:41.507Z,73.76
2018-02-12T11:38:09.073Z,73.29
2018-02-12T11:40:36.630Z,72.79
2018-02-12T11:43:04.361Z,73.22
2018-02-12T11:45:31.915Z,72.75
2018-02-12T11:47:59.461Z,75.06
2018-02-12T11:50:27.154Z,75.43
2018-02-12T11:52:56.459Z,75.31
2018-02-12T11:55:24.006Z,74.76
2018-02-12T11:57:51.712Z,74.52
2018-02-12T12:00:19.278Z,76.38
2018-02-12T12:02:46.826Z,75.71
2018-02-12T12:05:14.561Z,76.23
2018-02-12T12:07:42.104Z,77.55
2018-02-12T12:10:09.660Z,75.95
2018-02-12T12:12:37.348Z,75.06
2018-02-12T12:15:04.921Z,75.58
2018-02-12T12:17:32.478Z,75.46
2018-02-12T12:20:00.231Z,74.82
2018-02-12T12:22:27.789Z,75.96
2018-02-12T12:24:55.337Z,77.07
2018-02-12T12:27:22.923Z,77.39
2018-02-12T12:29:50.478Z,77.38
2018-02-12T12:32:18.038Z,76.77
2018-02-12T12:34:45.775Z,76.97
2018-02-12T12:37:13.362Z,76.49
2018-02-12T12:39:40.917Z,77.13
2018-02-12T12:42:08.788Z,76.44
2018-02-12T12:44:36.332Z,76.72
2018-02-12T12:47:03.898Z,76.48
2018-02-12T12:49:31.484Z,76.49
2018-02-12T12:51:59.036Z,77.44
2018-02-12T12:54:26.588Z,77.64
2018-02-12T12:56:54.464Z,77.33
2018-02-12T12:59:22.004Z,77.58
2018-02-12T13:01:49.555Z,78.01
2018-02-12T13:04:17.301Z,77.39
2018-02-12T13:06:44.853Z,78.57
2018-02-12T13:09:12.416Z,77.17
2018-02-12T13:11:39.982Z,76.23
2018-02-12T13:14:07.541Z,75.49
2018-02-12T13:16:35.239Z,75.85
2018-02-12T13:19:02.787Z,76.44
2018-02-12T13:21:30.369Z,76.71
2018-02-12T13:23:58.020Z,76.43
2018-02-12T13:26:25.585Z,76.43
2018-02-12T13:28:53.148Z,76.18
2018-02-12T13:31:20.890Z,77.31
2018-02-12T13:33:48.439Z,76.05
2018-02-12T13:36:16.003Z,75.76
2018-02-12T13:38:43.583Z,76.46
2018-02-12T13:41:11.132Z,76.09
2018-02-12T13:43:38.728Z,75.49
2018-02-12T13:46:06.422Z,75.86
2018-02-12T13:48:33.979Z,75.69
2018-02-12T13:51:01.544Z,74.97
2018-02-12T13:53:29.134Z,75.19
2018-02-12T13:55:56.691Z,74.56
2018-02-12T13:58:24.264Z,74.60
2018-02-12T14:00:52.078Z,75.41
2018-02-12T14:03:19.638Z,74.92
2018-02-12T14:05:47.195Z,75.29
2018-02-12T14:08:15.416Z,75.60
2018-02-12T14:10:42.978Z,75.99
2018-02-12T14:13:10.531Z,75.14
2018-02-12T14:15:38.312Z,75.36
2018-02-12T14:18:06.547Z,75.55
2018-02-12T14:20:34.113Z,75.64
2018-02-12T14:23:01.693Z,75.76
2018-02-12T14:25:29.293Z,76.94
2018-02-12T14:27:56.870Z,76.65
2018-02-12T14:30:24.618Z,76.32
2018-02-12T14:32:52.174Z,75.98
2018-02-12T14:35:19.730Z,76.13
2018-02-12T14:37:47.339Z,75.83
2018-02-12T14:40:14.898Z,75.60
2018-02-12T14:42:42.462Z,76.08
2018-02-12T14:45:10.069Z,76.59
2018-02-12T14:47:37.621Z,76.72
2018-02-12T14:50:05.214Z,76.59
2018-02-12T14:52:32.903Z,75.87
2018-02-12T14:55:00.467Z,76.24
2018-02-12T14:57:28.039Z,75.82
2018-02-12T14:59:55.927Z,76.04
2018-02-12T15:02:23.501Z,76.71
2018-02-12T15:04:51.083Z,76.65
2018-02-12T15:07:18.951Z,77.59
2018-02-12T15:09:46.516Z,76.95
2018-02-12T15:12:14.072Z,76.70
2018-02-12T15:14:41.777Z,76.63
2018-02-12T15:17:09.329Z,77.41
2018-02-12T15:19:36.921Z,77.90
2018-02-12T15:22:04.789Z,77.95
2018-02-12T15:24:32.377Z,78.30
2018-02-12T15:26:59.943Z,78.03
2018-02-12T15:29:27.702Z,78.26
2018-02-12T15:31:55.259Z,78.07
2018-02-12T15:34:22.822Z,77.54
2018-02-12T15:36:50.477Z,77.80
2018-02-12T15:39:18.036Z,77.85
2018-02-12T15:41:46.537Z,78.38
2018-02-12T15:44:14.119Z,78.83
2018-02-12T15:46:41.686Z,79.03
2018-02-12T15:49:09.258Z,78.65
2018-02-12T15:51:37.163Z,79.32
2018-02-12T15:54:04.727Z,79.23
2018-02-12T15:56:32.320Z,79.55
2018-02-12T15:58:59.908Z,80.26
2018-02-12T16:01:27.462Z,79.90
2018-02-12T16:03:55.019Z,79.29
2018-02-12T16:06:22.597Z,79.04
2018-02-12T16:08:51.150Z,78.73
2018-02-12T16:11:18.707Z,78.95
2018-02-12T16:13:46.293Z,79.67
2018-02-12T16:16:13.860Z,79.61
2018-02-12T16:18:41.431Z,80.46
2018-02-12T16:21:09.160Z,80.66
2018-02-12T16:23:36.726Z,79.76
2018-02-12T16:26:04.283Z,79.19
2018-02-12T16:28:31.950Z,79.50
2018-02-12T16:30:59.494Z,79.55
2018-02-12T16:33:27.052Z,79.11
2018-02-12T16:35:54.655Z,79.10
2018-02-12T16:38:22.210Z,79.27
2018-02-12T16:40:49.785Z,79.29
2018-02-12T16:43:17.399Z,79.29
2018-02-12T16:45:44.968Z,79.08
2018-02-12T16:48:12.569Z,78.57
2018-02-12T16:50:40.422Z,78.75
2018-02-12T16:53:07.966Z,80.11
2018-02-12T16:55:35.524Z,79.90
2018-02-12T16:58:03.262Z,79.66
2018-02-12T17:00:30.826Z,80.85
2018-02-12T17:02:58.421Z,80.96
2018-02-12T17:05:26.021Z,79.89
2018-02-12T17:07:53.586Z,79.99
2018-02-12T17:10:21.147Z,80.79
2018-02-12T17:12:48.916Z,81.90
2018-02-12T17:15:16.491Z,82.19
2018-02-12T17:17:44.055Z,82.07
2018-02-12T17:20:11.653Z,82.04
2018-02-12T17:22:39.216Z,81.81
2018-02-12T17:25:06.782Z,81.58
2018-02-12T17:27:34.390Z,81.61
2018-02-12T17:30:01.959Z,82.00
2018-02-12T17:32:29.522Z,81.93
2018-02-12T17:34:57.112Z,81.61
2018-02-12T17:37:26.830Z,81.26
2018-02-12T17:39:54.439Z,81.22
2018-02-12T17:42:22.053Z,81.00
2018-02-12T17:44:49.651Z,81.27
2018-02-12T17:47:17.283Z,82.63
2018-02-12T17:49:44.913Z,83.76
2018-02-12T17:52:12.540Z,84.08
2018-02-12T17:54:40.106Z,84.66
2018-02-12T17:57:07.985Z,85.44
2018-02-12T17:59:35.606Z,85.60
2018-02-12T18:02:03.198Z,85.12
2018-02-12T18:04:30.802Z,84.50
2018-02-12T18:06:58.429Z,84.99
2018-02-12T18:09:25.990Z,84.84
2018-02-12T18:11:53.558Z,84.12
2018-02-12T18:14:21.127Z,82.92
2018-02-12T18:16:48.732Z,82.86
2018-02-12T18:19:16.983Z,83.41
2018-02-12T18:21:44.550Z,83.72
2018-02-12T18:24:12.151Z,84.23
2018-02-12T18:26:39.725Z,84.13
2018-02-12T18:29:07.269Z,83.74
2018-02-12T18:31:35.015Z,83.55
2018-02-12T18:34:02.576Z,83.25
2018-02-12T18:36:30.143Z,82.80
2018-02-12T18:38:57.943Z,82.74
2018-02-12T18:41:25.496Z,82.74
2018-02-12T18:43:53.080Z,83.13
2018-02-12T18:46:20.655Z,83.72
2018-02-12T18:48:48.234Z,83.75
2018-02-12T18:51:15.789Z,84.45
2018-02-12T18:53:43.545Z,85.18
2018-02-12T18:56:11.179Z,84.78
2018-02-12T18:58:38.759Z,84.35
2018-02-12T19:01:06.665Z,85.27
2018-02-12T19:03:34.237Z,85.75
2018-02-12T19:06:01.807Z,85.35
2018-02-12T19:08:29.468Z,85.22
2018-02-12T19:10:57.036Z,85.05
2018-02-12T19:13:24.646Z,84.29
2018-02-12T19:15:52.332Z,83.78
2018-02-12T19:18:19.891Z,83.47
2018-02-12T19:20:47.477Z,83.35
2018-02-12T19:23:15.238Z,83.06
2018-02-12T19:25:42.847Z,83.27
2018-02-12T19:28:10.437Z,84.16
2018-02-12T19:30:38.326Z,85.11
2018-02-12T19:33:05.950Z,85.40
2018-02-12T19:35:33.654Z,85.68
2018-02-12T19:38:01.432Z,85.20
2018-02-12T19:40:29.020Z,84.54
2018-02-12T19:42:56.609Z,84.04
2018-02-12T19:45:24.310Z,83.77
2018-02-12T19:47:51.878Z,83.64
2018-02-12T19:50:19.465Z,83.80
2018-02-12T19:52:47.370Z,84.46
2018-02-12T19:55:14.947Z,84.96
2018-02-12T19:57:42.525Z,84.56
2018-02-12T20:00:10.327Z,84.95
2018-02-12T20:02:37.910Z,85.25
2018-02-12T20:05:05.501Z,85.72
2018-02-12T20:07:33.288Z,85.99
2018-02-12T20:10:00.942Z,86.19
2018-02-12T20:12:28.537Z,86.83
2018-02-12T20:14:56.304Z,87.37
2018-02-12T20:17:23.857Z,87.28
2018-02-12T20:19:51.470Z,85.89
2018-02-12T20:22:19.213Z,85.88
2018-02-12T20:24:46.829Z,85.37
2018-02-12T20:27:14.446Z,85.72
2018-02-12T20:29:42.172Z,86.57
2018-02-12T20:32:09.727Z,87.16
2018-02-12T20:34:37.311Z,87.15
2018-02-12T20:37:04.914Z,86.90
2018-02-12T20:39:32.496Z,87.21
2018-02-12T20:42:00.071Z,86.70
2018-02-12T20:44:27.670Z,85.89
2018-02-12T20:46:55.259Z,86.11
2018-02-12T20:49:22.836Z,86.57
2018-02-12T20:51:50.647Z,87.01
2018-02-12T20:54:18.210Z,87.32
2018-02-12T20:56:45.834Z,87.76
2018-02-12T20:59:13.604Z,87.59
2018-02-12T21:01:41.208Z,86.45
2018-02-12T21:04:08.768Z,86.28
2018-02-12T21:06:36.501Z,86.59
2018-02-12T21:09:04.129Z,86.76
2018-02-12T21:11:31.683Z,85.69
2018-02-12T21:13:59.433Z,85.65
2018-02-12T21:16:26.986Z,86.37
2018-02-12T21:18:54.567Z,87.12
2018-02-12T21:21:22.277Z,86.27
2018-02-12T21:23:49.868Z,85.02
2018-02-12T21:26:17.417Z,84.84
2018-02-12T21:28:45.122Z,85.95
2018-02-12T21:31:12.669Z,86.51
2018-02-12T21:33:40.232Z,86.14
2018-02-12T21:36:08.122Z,86.03
2018-02-12T21:38:35.681Z,86.66
2018-02-12T21:41:03.241Z,87.06
2018-02-12T21:43:31.011Z,87.36
2018-02-12T21:45:58.567Z,87.76
2018-02-12T21:48:26.142Z,88.03
2018-02-12T21:50:53.858Z,87.57
2018-02-12T21:53:21.411Z,87.19
2018-02-12T21:55:48.959Z,86.91
2018-02-12T21:58:16.561Z,86.77
2018-02-12T22:00:44.131Z,86.36
2018-02-12T22:03:11.690Z,86.41
2018-02-12T22:05:39.382Z,86.44
2018-02-12T22:08:06.950Z,86.40
2018-02-12T22:10:34.519Z,86.34
2018-02-12T22:13:02.094Z,86.42
2018-02-12T22:15:29.655Z,86.31
2018-02-12T22:17:57.215Z,86.47
2018-02-12T22:20:24.966Z,86.22
2018-02-12T22:22:52.523Z,85.85
2018-02-12T22:25:20.084Z,85.93
2018-02-12T22:27:47.821Z,86.21
2018-02-12T22:30:15.380Z,86.06
2018-02-12T22:32:42.942Z,86.59
2018-02-12T22:35:10.647Z,86.54
2018-02-12T22:37:38.206Z,86.53
2018-02-12T22:40:05.765Z,86.86
2018-02-12T22:42:33.500Z,87.09
2018-02-12T22:45:01.073Z,87.14
2018-02-12T22:47:28.663Z,86.87
2018-02-12T22:49:56.405Z,86.82
2018-02-12T22:52:23.966Z,86.88
2018-02-12T22:54:51.521Z,87.27
2018-02-12T22:57:19.261Z,87.37
2018-02-12T22:59:46.808Z,87.33
2018-02-12T23:02:14.374Z,87.15
2018-02-12T23:04:42.064Z,87.33
2018-02-12T23:07:09.634Z,87.49
2018-02-12T23:09:37.199Z,87.33
2018-02-12T23:12:04.760Z,86.54
2018-02-12T23:14:32.309Z,86.16
2018-02-12T23:17:05.434Z,86.13
2018-02-12T23:19:32.995Z,86.60
2018-02-12T23:22:00.545Z,87.05
2018-02-12T23:24:28.287Z,87.36
2018-02-12T23:26:55.843Z,87.13
2018-02-12T23:29:23.399Z,87.11
2018-02-12T23:31:51.996Z,87.13
2018-02-12T23:34:19.543Z,87.05
2018-02-12T23:36:47.091Z,87.21
2018-02-12T23:39:14.682Z,87.39
2018-02-12T23:41:42.231Z,86.96
2018-02-12T23:44:09.793Z,87.10
2018-02-12T23:46:37.478Z,87.22
2018-02-12T23:49:05.026Z,87.24
2018-02-12T23:51:32.580Z,87.08
2018-02-12T23:54:00.462Z,86.89
2018-02-12T23:56:28.014Z,86.76
2018-02-12T23:58:55.564Z,86.81
